Terminal Aerodrome Forecast
Issued by NWS Oklahoma City, OK

Home | Current Version | Previous Version | Text Only | Print | Product List | Glossary On
Versions: 1 2 3 4 5 6 7 8 9 10 11 12 13 14 15 16 17 18 19 20 21 22 23 24 25 26
000
FTUS44 KOUN 300520
TAFOUN
TAF
KOUN 300520Z 3006/3106 13006KT P6SM VCSH BKN100
      TEMPO 3008/3012 6SM -RA OVC070
     FM301200 10009KT 5SM -RA SCT015 OVC040
      TEMPO 3014/3018 3SM RA OVC020
     FM301800 13012KT 5SM -RA BR OVC015 PROB30 3018/3024 3SM -TSRA
      BKN015CB=

USA.gov is the U.S. government's official web portal to all federal, state and local government web resources and services.